Time;durP1;ratioP1;P1;durP2;ratioP2;P2;SDS_P1;SDS_P2;PMS_P1;PMS_P2;Temp;Humidity;BMP_temperature;BMP_pressure;BME280_temperature;BME280_humidity;BME280_pressure;Samples;Min_cycle;Max_cycle;Signal;HPM_P1;HPM_P2
2021/12/06 00:09:40;;;;;;;23.88;9.18;;;0.80;99.90;;;;;;20586500;28;20035;-75
2021/12/06 00:19:43;;;;;;;7.20;3.15;;;0.80;99.90;;;;;;20585775;28;20041;-75
2021/12/06 00:29:45;;;;;;;2.40;1.63;;;0.70;99.90;;;;;;20590101;28;20453;-75
2021/12/06 00:39:49;;;;;;;7.22;3.30;;;0.70;99.90;;;;;;20584092;28;20426;-76
2021/12/06 00:49:50;;;;;;;18.63;8.68;;;0.80;99.90;;;;;;20584915;28;20050;-78
2021/12/06 00:59:51;;;;;;;3.47;2.00;;;0.90;99.90;;;;;;20584496;28;20031;-78
2021/12/06 01:09:52;;;;;;;5.35;2.40;;;0.60;99.90;;;;;;20567657;28;20092;-77
2021/12/06 01:19:53;;;;;;;7.00;2.28;;;0.50;99.90;;;;;;20582358;28;20027;-76
2021/12/06 01:39:56;;;;;;;3.25;1.92;;;0.50;99.90;;;;;;20579936;28;20027;-76
2021/12/06 01:50:11;;;;;;;3.80;1.70;;;0.40;99.90;;;;;;20580997;28;20038;-77
2021/12/06 02:00:22;;;;;;;1.80;1.30;;;0.40;99.90;;;;;;20579435;28;20046;-76
2021/12/06 02:10:28;;;;;;;4.18;1.58;;;0.40;99.90;;;;;;20583278;28;20520;-76
2021/12/06 02:20:36;;;;;;;4.32;2.10;;;0.20;99.90;;;;;;20593323;28;20027;-76
2021/12/06 02:30:37;;;;;;;2.83;1.75;;;0.30;99.90;;;;;;20597331;28;20035;-76
2021/12/06 02:40:40;;;;;;;4.78;1.98;;;0.20;99.90;;;;;;20594038;28;20030;-75
2021/12/06 02:50:53;;;;;;;7.13;2.00;;;0.30;99.90;;;;;;20591003;28;20035;-76
2021/12/06 03:00:56;;;;;;;5.35;2.47;;;0.40;99.90;;;;;;20591862;28;20037;-77
2021/12/06 03:10:57;;;;;;;4.10;2.10;;;0.30;99.90;;;;;;20589913;28;20094;-77
2021/12/06 03:20:59;;;;;;;6.97;2.58;;;0.40;99.90;;;;;;20596085;28;20532;-77
2021/12/06 03:31:00;;;;;;;5.32;2.97;;;0.50;99.90;;;;;;20594375;28;20034;-76
2021/12/06 03:41:02;;;;;;;9.40;4.68;;;0.30;99.90;;;;;;20596876;28;20174;-77
2021/12/06 03:51:03;;;;;;;8.13;5.18;;;0.30;99.90;;;;;;20667111;28;20022;-76
2021/12/06 04:01:05;;;;;;;7.55;4.45;;;0.20;99.90;;;;;;20671055;28;20563;-76
2021/12/06 04:11:08;;;;;;;11.65;5.55;;;0.50;99.90;;;;;;20645475;28;20077;-77
2021/12/06 04:21:11;;;;;;;13.00;6.72;;;0.40;99.90;;;;;;20668521;28;20034;-77
2021/12/06 04:31:12;;;;;;;16.92;6.95;;;0.40;99.90;;;;;;20672912;28;20034;-77
2021/12/06 04:41:13;;;;;;;27.20;9.07;;;0.40;99.90;;;;;;20666540;28;20154;-77
2021/12/06 04:51:15;;;;;;;24.95;9.40;;;0.50;99.90;;;;;;20664138;28;20030;-76
2021/12/06 05:01:21;;;;;;;27.15;9.18;;;0.50;99.90;;;;;;20664544;28;20035;-75
2021/12/06 05:11:26;;;;;;;28.25;10.85;;;0.60;99.90;;;;;;20645277;28;20030;-76
2021/12/06 05:21:27;;;;;;;24.98;10.13;;;0.70;99.90;;;;;;20661916;28;20034;-77
2021/12/06 05:31:29;;;;;;;23.40;10.07;;;0.70;99.90;;;;;;20663435;28;20026;-77
2021/12/06 05:41:30;;;;;;;22.00;10.07;;;0.70;99.90;;;;;;20660232;28;20039;-77
2021/12/06 05:51:31;;;;;;;23.20;9.38;;;0.90;99.90;;;;;;20669692;28;20400;-77
2021/12/06 06:01:32;;;;;;;21.77;8.57;;;0.80;99.90;;;;;;20676711;28;20034;-77
2021/12/06 06:11:34;;;;;;;25.73;9.45;;;1.00;99.90;;;;;;20676512;28;20053;-77
2021/12/06 06:21:35;;;;;;;21.58;8.73;;;0.80;99.90;;;;;;20675922;28;20512;-77
2021/12/06 06:31:37;;;;;;;18.10;8.38;;;0.90;99.90;;;;;;20673043;28;20034;-77
2021/12/06 06:41:37;;;;;;;21.02;8.82;;;0.90;99.90;;;;;;20679067;28;20041;-76
2021/12/06 06:51:40;;;;;;;20.48;8.50;;;1.00;99.90;;;;;;20672956;28;20486;-76
2021/12/06 07:01:41;;;;;;;20.45;9.00;;;1.00;99.90;;;;;;20671223;28;20026;-76
2021/12/06 07:11:44;;;;;;;18.27;9.05;;;0.90;99.90;;;;;;20672316;28;20038;-76
2021/12/06 07:21:45;;;;;;;22.23;9.38;;;0.70;99.90;;;;;;20670588;28;20041;-76
2021/12/06 07:31:46;;;;;;;18.27;8.23;;;0.80;99.90;;;;;;20670181;28;20031;-76
2021/12/06 07:41:47;;;;;;;19.67;10.05;;;0.90;99.90;;;;;;20669334;28;20126;-76
2021/12/06 07:51:49;;;;;;;24.10;9.82;;;1.00;99.90;;;;;;20668665;28;20143;-76
2021/12/06 08:01:50;;;;;;;22.88;10.57;;;1.10;99.90;;;;;;20667637;28;20397;-77
2021/12/06 08:11:51;;;;;;;22.33;11.13;;;1.20;99.90;;;;;;20665884;28;20030;-76
2021/12/06 08:21:52;;;;;;;19.40;9.57;;;1.20;99.90;;;;;;20665994;28;20489;-76
2021/12/06 08:31:52;;;;;;;17.85;9.25;;;1.30;99.90;;;;;;20664604;28;20034;-76
2021/12/06 08:41:54;;;;;;;18.27;8.80;;;1.50;99.90;;;;;;20667000;28;20041;-76
2021/12/06 08:51:57;;;;;;;18.25;8.18;;;1.50;99.90;;;;;;20664005;28;20030;-76
2021/12/06 09:01:58;;;;;;;19.33;7.50;;;1.40;99.90;;;;;;20663377;28;20034;-76
2021/12/06 09:12:00;;;;;;;20.33;7.38;;;1.60;99.90;;;;;;20665037;28;20070;-75
2021/12/06 09:22:02;;;;;;;15.68;7.13;;;1.60;99.90;;;;;;20669313;28;20038;-77
2021/12/06 09:32:08;;;;;;;22.00;8.65;;;1.90;99.90;;;;;;20667417;28;20493;-77
2021/12/06 09:42:09;;;;;;;12.75;7.28;;;2.00;99.90;;;;;;20663752;28;20026;-77
2021/12/06 09:52:11;;;;;;;15.98;7.95;;;2.20;99.90;;;;;;20665879;28;20041;-77
2021/12/06 10:02:16;;;;;;;19.08;8.55;;;2.50;99.90;;;;;;20664478;28;20101;-77
2021/12/06 10:12:18;;;;;;;17.00;8.55;;;2.60;99.90;;;;;;20666056;28;20096;-77
2021/12/06 10:22:19;;;;;;;15.02;7.80;;;2.50;99.90;;;;;;20660873;28;20034;-77
2021/12/06 10:32:25;;;;;;;15.85;9.05;;;2.60;99.90;;;;;;20669100;28;20507;-76
2021/12/06 10:42:33;;;;;;;20.33;9.80;;;2.40;99.90;;;;;;20674737;28;20386;-77
2021/12/06 10:52:34;;;;;;;28.77;11.10;;;2.30;99.90;;;;;;20673552;28;20081;-76
2021/12/06 11:02:48;;;;;;;25.85;12.80;;;2.30;99.90;;;;;;20673247;28;20034;-77
2021/12/06 11:13:10;;;;;;;24.88;12.05;;;2.30;99.90;;;;;;20672511;28;20034;-78
2021/12/06 11:23:12;;;;;;;;;;;2.40;99.90;;;;;;20672978;28;20031;-76
2021/12/06 11:33:29;;;;;;;23.65;11.50;;;2.60;99.90;;;;;;20669974;28;19953;-75
2021/12/06 11:43:36;;;;;;;25.52;11.38;;;2.60;99.90;;;;;;20669506;28;20073;-77
2021/12/06 11:53:44;;;;;;;20.13;10.13;;;2.80;99.90;;;;;;20669133;28;20393;-77
2021/12/06 12:03:50;;;;;;;20.08;10.57;;;3.10;99.90;;;;;;20668030;28;20465;-77
2021/12/06 12:13:51;;;;;;;19.58;10.63;;;4.70;99.90;;;;;;20668607;28;20030;-77
2021/12/06 12:23:52;;;;;;;;;;;3.60;99.90;;;;;;20666740;28;20092;-77
2021/12/06 12:33:56;;;;;;;19.30;10.45;;;3.20;99.90;;;;;;20666982;28;19909;-77
2021/12/06 12:44:10;;;;;;;17.20;8.98;;;3.40;99.90;;;;;;20664883;28;20097;-77
2021/12/06 12:54:28;;;;;;;18.95;9.73;;;3.20;99.90;;;;;;20647292;28;20549;-76
2021/12/06 13:04:58;;;;;;;18.98;9.77;;;3.00;99.90;;;;;;20663432;28;20042;-76
2021/12/06 13:15:11;;;;;;;19.50;9.80;;;3.10;99.90;;;;;;20661019;28;20121;-74
2021/12/06 13:25:15;;;;;;;15.82;8.95;;;3.30;99.90;;;;;;20662549;28;20129;-77
2021/12/06 13:35:28;;;;;;;10.82;5.30;;;3.40;99.90;;;;;;20662664;28;20027;-75
2021/12/06 13:45:29;;;;;;;7.75;5.13;;;4.90;99.90;;;;;;20662847;28;20038;-75
2021/12/06 13:55:37;;;;;;;7.95;3.65;;;4.50;99.90;;;;;;20662586;28;20409;-74
2021/12/06 14:05:49;;;;;;;8.27;3.40;;;4.80;99.90;;;;;;20666093;28;20575;-75
2021/12/06 14:15:54;;;;;;;6.18;3.92;;;7.00;99.90;;;;;;20658774;28;20383;-75
2021/12/06 14:26:02;;;;;;;6.35;4.03;;;6.40;99.90;;;;;;20622702;28;20031;-76
2021/12/06 14:36:06;;;;;;;11.48;3.70;;;6.40;99.90;;;;;;20597533;28;20042;-75
2021/12/06 14:46:12;;;;;;;11.88;3.25;;;6.00;99.90;;;;;;20602050;28;20051;-75
2021/12/06 15:06:21;;;;;;;10.98;4.40;;;5.00;99.90;;;;;;20596677;28;20089;-75
2021/12/06 15:16:26;;;;;;;7.22;3.80;;;5.00;99.90;;;;;;20595962;28;20150;-77
2021/12/06 15:26:42;;;;;;;6.88;4.50;;;3.60;99.90;;;;;;20597587;28;20326;-77
2021/12/06 15:36:43;;;;;;;12.88;5.38;;;2.80;99.90;;;;;;20596399;28;20096;-77
2021/12/06 15:46:46;;;;;;;;;;;2.70;99.90;;;;;;20595044;28;20031;-77
2021/12/06 15:57:00;;;;;;;10.45;5.00;;;2.80;99.90;;;;;;20594599;28;20293;-75
2021/12/06 16:07:03;;;;;;;10.50;5.65;;;1.80;99.90;;;;;;20593941;28;20577;-75
2021/12/06 16:17:11;;;;;;;13.13;6.10;;;1.10;99.90;;;;;;20605006;28;20046;-75
2021/12/06 16:27:15;;;;;;;17.30;8.65;;;0.80;99.90;;;;;;20597720;28;20031;-76
2021/12/06 16:37:20;;;;;;;16.98;7.63;;;0.80;99.90;;;;;;20584830;28;20398;-76
2021/12/06 16:47:30;;;;;;;20.80;7.63;;;0.30;99.90;;;;;;20620329;28;20129;-75
2021/12/06 16:57:42;;;;;;;11.82;6.18;;;0.40;99.90;;;;;;20608199;28;20528;-77
2021/12/06 17:07:43;;;;;;;15.43;8.48;;;0.20;99.90;;;;;;20604085;28;20030;-76
2021/12/06 17:17:50;;;;;;;33.00;13.65;;;-0.10;99.90;;;;;;20582379;28;20170;-77
2021/12/06 17:27:51;;;;;;;20.05;10.13;;;-0.20;99.90;;;;;;20582290;28;20029;-75
2021/12/06 17:37:52;;;;;;;13.25;8.30;;;0.10;99.90;;;;;;20582242;28;20055;-75
2021/12/06 17:47:55;;;;;;;15.75;7.78;;;0.30;99.90;;;;;;20630993;28;20085;-75
2021/12/06 17:58:05;;;;;;;23.13;10.85;;;0.50;99.90;;;;;;20626754;28;20499;-75
2021/12/06 18:08:06;;;;;;;22.02;10.25;;;0.30;99.90;;;;;;20653848;28;20101;-75
2021/12/06 18:18:07;;;;;;;27.05;11.30;;;-0.20;99.90;;;;;;20646921;28;20108;-74
2021/12/06 18:28:10;;;;;;;27.25;13.55;;;-0.20;99.90;;;;;;20664587;28;20038;-75
2021/12/06 18:38:17;;;;;;;22.38;11.75;;;-0.20;99.90;;;;;;20660591;28;20520;-74
2021/12/06 18:48:18;;;;;;;37.05;17.27;;;0.00;99.90;;;;;;20592990;28;20496;-75
2021/12/06 18:58:19;;;;;;;25.95;12.63;;;0.10;99.90;;;;;;20590999;28;20031;-75
2021/12/06 19:08:20;;;;;;;24.58;11.10;;;-0.20;99.90;;;;;;20591775;28;20039;-74
2021/12/06 19:18:22;;;;;;;27.77;13.95;;;-0.50;99.90;;;;;;20590301;28;20050;-75
2021/12/06 19:28:26;;;;;;;25.13;12.90;;;-0.40;99.90;;;;;;20590042;28;20031;-75
2021/12/06 19:38:28;;;;;;;23.15;11.80;;;-0.20;99.90;;;;;;20607486;28;20034;-76
2021/12/06 19:48:30;;;;;;;26.80;13.00;;;-0.10;99.90;;;;;;20627542;28;20046;-75
2021/12/06 19:58:31;;;;;;;23.25;12.88;;;0.10;99.90;;;;;;20626797;28;20057;-76
2021/12/06 20:08:32;;;;;;;25.63;12.35;;;0.00;99.90;;;;;;20629998;28;20026;-75
2021/12/06 20:18:34;;;;;;;24.50;12.20;;;0.00;99.90;;;;;;20625453;28;20108;-76
2021/12/06 20:28:35;;;;;;;26.65;11.60;;;0.10;99.90;;;;;;20624927;28;20065;-76
2021/12/06 20:38:36;;;;;;;25.08;11.55;;;-0.10;99.90;;;;;;20623857;28;20093;-76
2021/12/06 20:48:40;;;;;;;23.92;12.07;;;-0.10;99.90;;;;;;20647380;28;20030;-76
2021/12/06 20:58:41;;;;;;;29.52;13.43;;;-0.10;99.90;;;;;;20664204;28;20044;-76
2021/12/06 21:08:43;;;;;;;38.47;20.00;;;0.00;99.90;;;;;;20663369;28;20488;-75
2021/12/06 21:18:44;;;;;;;23.17;11.38;;;0.20;99.90;;;;;;20662209;28;20064;-75
2021/12/06 21:28:45;;;;;;;26.42;13.63;;;0.00;99.90;;;;;;20662503;28;20061;-75
2021/12/06 21:38:46;;;;;;;33.50;12.70;;;-0.10;99.90;;;;;;20662059;28;20429;-73
2021/12/06 21:48:47;;;;;;;27.55;14.82;;;0.00;99.90;;;;;;20661406;28;20041;-75
2021/12/06 21:58:48;;;;;;;28.27;13.65;;;0.10;99.90;;;;;;20660999;28;20406;-74
2021/12/06 22:08:49;;;;;;;26.70;12.00;;;0.20;99.90;;;;;;20662096;28;20035;-74
2021/12/06 22:18:49;;;;;;;24.67;12.77;;;0.30;99.90;;;;;;20664467;28;20022;-74
2021/12/06 22:28:50;;;;;;;22.27;12.70;;;0.30;99.90;;;;;;20666111;28;20033;-75
2021/12/06 22:38:51;;;;;;;22.40;11.88;;;0.30;99.90;;;;;;20676003;28;20038;-75
2021/12/06 22:48:54;;;;;;;23.02;10.25;;;0.30;99.90;;;;;;20673829;28;20482;-75
2021/12/06 22:58:55;;;;;;;35.67;15.45;;;0.50;99.90;;;;;;20672880;28;20417;-75
2021/12/06 23:08:56;;;;;;;27.48;13.27;;;0.50;99.90;;;;;;20672297;28;20038;-75
2021/12/06 23:18:58;;;;;;;16.75;9.07;;;0.40;99.90;;;;;;20671278;28;20022;-75
2021/12/06 23:28:59;;;;;;;19.92;9.90;;;0.50;99.90;;;;;;20670712;28;20035;-75
2021/12/06 23:49:22;;;;;;;15.30;8.82;;;0.50;99.90;;;;;;20669232;28;20405;-75
2021/12/06 23:59:28;;;;;;;20.48;11.18;;;0.60;99.90;;;;;;20668296;28;20030;-74
